Time;durP1;ratioP1;P1;durP2;ratioP2;P2;SDS_P1;SDS_P2;PMS_P1;PMS_P2;Temp;Humidity;BMP_temperature;BMP_pressure;BME280_temperature;BME280_humidity;BME280_pressure;Samples;Min_cycle;Max_cycle;Signal;HPM_P1;HPM_P2
2021/11/23 00:03:54;;;;;;;7.70;7.20;;;5.60;99.90;;;;;;10458252;28;20220;-83
2021/11/23 00:08:56;;;;;;;8.43;7.83;;;5.60;99.90;;;;;;10485562;28;20641;-82
2021/11/23 00:14:00;;;;;;;7.40;6.80;;;5.50;99.90;;;;;;10472545;28;20236;-82
2021/11/23 00:19:03;;;;;;;7.27;6.77;;;5.50;99.90;;;;;;10462894;28;20224;-83
2021/11/23 00:24:10;;;;;;;8.17;7.67;;;5.50;99.90;;;;;;10435832;28;20193;-83
2021/11/23 00:29:12;;;;;;;8.40;7.80;;;5.50;99.90;;;;;;10446189;28;20225;-82
2021/11/23 00:34:15;;;;;;;7.47;6.87;;;5.40;99.90;;;;;;10440900;28;20225;-82
2021/11/23 00:39:18;;;;;;;8.60;7.80;;;5.30;99.90;;;;;;10424871;28;20670;-82
2021/11/23 00:44:21;;;;;;;8.80;8.10;;;5.30;99.90;;;;;;10434933;28;20574;-82
2021/11/23 00:49:25;;;;;;;8.50;7.87;;;5.20;99.90;;;;;;10440993;28;20752;-82
2021/11/23 00:54:27;;;;;;;8.63;7.93;;;5.30;99.90;;;;;;10445205;28;20391;-82
2021/11/23 00:59:29;;;;;;;8.80;8.20;;;5.30;99.90;;;;;;10442568;28;20740;-82
2021/11/23 01:04:33;;;;;;;9.50;8.70;;;5.20;99.90;;;;;;10444330;28;20197;-82
2021/11/23 01:09:35;;;;;;;8.10;7.50;;;5.20;99.90;;;;;;10427986;28;20324;-82
2021/11/23 01:14:37;;;;;;;8.80;8.20;;;5.30;99.90;;;;;;10432627;28;20205;-82
2021/11/23 01:19:40;;;;;;;8.90;8.20;;;5.30;99.90;;;;;;10432169;28;20320;-83
2021/11/23 01:24:43;;;;;;;8.33;7.80;;;5.20;99.90;;;;;;10448612;28;20276;-83
2021/11/23 01:29:45;;;;;;;8.70;8.00;;;5.20;99.90;;;;;;10424370;28;20237;-82
2021/11/23 01:34:48;;;;;;;8.60;8.00;;;5.10;99.90;;;;;;10458086;28;20284;-82
2021/11/23 01:39:51;;;;;;;9.23;8.53;;;5.10;99.90;;;;;;10434347;28;20225;-83
2021/11/23 01:44:53;;;;;;;8.90;8.10;;;5.10;99.90;;;;;;10424187;28;20296;-83
2021/11/23 01:49:57;;;;;;;9.17;8.47;;;5.10;99.90;;;;;;10419002;28;20731;-83
2021/11/23 01:55:00;;;;;;;7.60;7.10;;;5.00;99.90;;;;;;10430619;28;20228;-83
2021/11/23 02:00:04;;;;;;;8.80;8.10;;;5.00;99.90;;;;;;10435644;28;20982;-83
2021/11/23 02:05:09;;;;;;;8.97;8.27;;;5.00;99.90;;;;;;10419571;28;20223;-83
2021/11/23 02:10:12;;;;;;;8.40;7.80;;;4.90;99.90;;;;;;10431159;28;20312;-83
2021/11/23 02:15:14;;;;;;;9.10;8.40;;;4.90;99.90;;;;;;10414189;28;20212;-83
2021/11/23 02:20:20;;;;;;;8.73;7.90;;;4.90;99.90;;;;;;10437879;28;20304;-83
2021/11/23 02:25:22;;;;;;;8.83;8.23;;;4.90;99.90;;;;;;10437852;28;20368;-83
2021/11/23 02:30:24;;;;;;;10.50;8.90;;;4.80;99.90;;;;;;10437588;28;20229;-83
2021/11/23 02:35:27;;;;;;;9.40;8.70;;;4.80;99.90;;;;;;10437599;28;20284;-83
2021/11/23 02:40:29;;;;;;;9.10;8.40;;;4.70;99.90;;;;;;10448741;28;20213;-83
2021/11/23 02:45:32;;;;;;;8.40;7.70;;;4.70;99.90;;;;;;10414177;28;20216;-83
2021/11/23 02:50:35;;;;;;;8.67;8.10;;;4.70;99.90;;;;;;10420904;28;20724;-83
2021/11/23 02:55:38;;;;;;;8.27;7.67;;;4.60;99.90;;;;;;10455291;28;20205;-83
2021/11/23 03:00:41;;;;;;;9.30;8.50;;;4.60;99.90;;;;;;10437560;28;20581;-83
2021/11/23 03:05:44;;;;;;;8.50;7.90;;;4.60;99.90;;;;;;10439877;28;20599;-83
2021/11/23 03:10:47;;;;;;;9.40;8.70;;;4.60;99.90;;;;;;10420120;28;20225;-83
2021/11/23 03:15:49;;;;;;;9.67;8.97;;;4.50;99.90;;;;;;10426496;28;20208;-83
2021/11/23 03:20:53;;;;;;;9.10;8.50;;;4.40;99.90;;;;;;10418841;28;20259;-83
2021/11/23 03:25:55;;;;;;;9.60;8.90;;;4.40;99.90;;;;;;10469381;28;20205;-83
2021/11/23 03:30:57;;;;;;;10.13;9.33;;;4.30;99.90;;;;;;10444334;28;20229;-82
2021/11/23 03:36:01;;;;;;;10.47;9.67;;;4.30;99.90;;;;;;10433856;28;20208;-83
2021/11/23 03:41:03;;;;;;;10.13;9.33;;;4.30;99.90;;;;;;10443872;28;20688;-83
2021/11/23 03:46:05;;;;;;;10.27;9.47;;;4.30;99.90;;;;;;10416894;28;20232;-83
2021/11/23 03:51:08;;;;;;;10.47;9.67;;;4.30;99.90;;;;;;10445567;28;20243;-83
2021/11/23 03:56:11;;;;;;;10.77;10.07;;;4.40;99.90;;;;;;10458008;28;20716;-83
2021/11/23 04:01:13;;;;;;;9.77;9.07;;;4.30;99.90;;;;;;10427599;28;20677;-83
2021/11/23 04:06:18;;;;;;;10.90;9.97;;;4.30;99.90;;;;;;10437394;28;20687;-83
2021/11/23 04:11:20;;;;;;;10.13;9.40;;;4.20;99.90;;;;;;10428137;28;20247;-83
2021/11/23 04:16:23;;;;;;;10.43;9.63;;;4.30;99.90;;;;;;10426421;28;20669;-83
2021/11/23 04:21:27;;;;;;;10.23;9.33;;;4.30;99.90;;;;;;10443099;28;20228;-83
2021/11/23 04:26:29;;;;;;;11.23;10.33;;;4.30;99.90;;;;;;10417606;28;20212;-83
2021/11/23 04:31:31;;;;;;;10.53;9.73;;;4.40;99.90;;;;;;10424128;28;20284;-83
2021/11/23 04:36:35;;;;;;;11.30;10.40;;;4.50;99.90;;;;;;10425039;28;20212;-83
2021/11/23 04:41:37;;;;;;;10.23;9.43;;;4.50;99.90;;;;;;10418598;28;20260;-83
2021/11/23 04:46:39;;;;;;;10.30;9.60;;;4.50;99.90;;;;;;10441547;28;20229;-83
2021/11/23 04:51:43;;;;;;;10.57;9.60;;;4.40;99.90;;;;;;10424148;28;20233;-82
2021/11/23 04:56:45;;;;;;;10.40;9.60;;;4.30;99.90;;;;;;10432983;28;20212;-83
2021/11/23 05:01:47;;;;;;;11.37;10.47;;;4.20;99.90;;;;;;10416531;28;20599;-83
2021/11/23 05:06:50;;;;;;;10.40;9.60;;;4.20;99.90;;;;;;10436709;28;20651;-83
2021/11/23 05:11:53;;;;;;;10.90;10.00;;;4.20;99.90;;;;;;10422769;28;20593;-83
2021/11/23 05:16:55;;;;;;;11.13;10.27;;;4.10;99.90;;;;;;10422642;28;20715;-83
2021/11/23 05:21:58;;;;;;;9.97;9.17;;;4.10;99.90;;;;;;10438652;28;20235;-83
2021/11/23 05:27:00;;;;;;;12.17;11.27;;;4.10;99.90;;;;;;10422471;28;20205;-83
2021/11/23 05:32:03;;;;;;;17.70;16.10;;;4.10;99.90;;;;;;10415795;28;20324;-82
2021/11/23 05:37:06;;;;;;;13.80;12.60;;;4.00;99.90;;;;;;10432205;28;20205;-83
2021/11/23 05:42:09;;;;;;;12.10;11.03;;;4.00;99.90;;;;;;10416812;28;20236;-83
2021/11/23 05:47:11;;;;;;;12.10;11.10;;;3.90;99.90;;;;;;10419504;28;20208;-83
2021/11/23 05:52:14;;;;;;;12.50;11.40;;;3.90;99.90;;;;;;10425944;28;20232;-83
2021/11/23 05:57:17;;;;;;;12.80;11.70;;;3.90;99.90;;;;;;10434227;28;20228;-84
2021/11/23 06:02:19;;;;;;;12.80;11.80;;;4.00;99.90;;;;;;10436296;28;20680;-84
2021/11/23 06:07:23;;;;;;;12.20;11.10;;;4.00;99.90;;;;;;10438998;28;20205;-85
2021/11/23 06:12:28;;;;;;;13.07;11.97;;;3.90;99.90;;;;;;10429127;28;20271;-85
2021/11/23 06:17:30;;;;;;;13.47;12.37;;;3.90;99.90;;;;;;10414235;28;20213;-85
2021/11/23 06:22:34;;;;;;;12.87;11.80;;;3.90;99.90;;;;;;10426905;28;20236;-84
2021/11/23 06:27:37;;;;;;;12.83;11.63;;;3.90;99.90;;;;;;10428871;28;20205;-83
2021/11/23 06:32:39;;;;;;;14.53;13.27;;;3.90;99.90;;;;;;10454315;28;20304;-84
2021/11/23 06:37:43;;;;;;;13.80;12.60;;;3.80;99.90;;;;;;10418430;28;20588;-83
2021/11/23 06:42:45;;;;;;;15.00;13.80;;;3.80;99.90;;;;;;10418158;28;20781;-84
2021/11/23 06:47:48;;;;;;;14.00;12.70;;;3.80;99.90;;;;;;10417795;28;20308;-84
2021/11/23 06:52:51;;;;;;;14.03;12.93;;;3.80;99.90;;;;;;10418254;28;20239;-85
2021/11/23 06:57:53;;;;;;;13.90;12.70;;;3.80;99.90;;;;;;10418605;28;20242;-86
2021/11/23 07:02:56;;;;;;;13.03;11.90;;;3.80;99.90;;;;;;10416832;28;20322;-86
2021/11/23 07:07:59;;;;;;;13.67;12.50;;;3.80;99.90;;;;;;10412915;28;20217;-87
2021/11/23 07:13:01;;;;;;;14.20;13.00;;;3.80;99.90;;;;;;10420096;28;20236;-84
2021/11/23 07:18:04;;;;;;;13.43;12.33;;;3.90;99.90;;;;;;10414648;28;20209;-86
2021/11/23 07:23:08;;;;;;;13.50;12.30;;;3.80;99.90;;;;;;10417954;28;20668;-86
2021/11/23 07:28:10;;;;;;;14.90;13.70;;;3.80;99.90;;;;;;10417956;28;20209;-86
2021/11/23 07:33:12;;;;;;;14.27;13.10;;;3.90;99.90;;;;;;10417990;28;20287;-86
2021/11/23 07:38:16;;;;;;;14.23;12.93;;;3.80;99.90;;;;;;10425029;28;20588;-81
2021/11/23 07:43:18;;;;;;;15.03;13.73;;;3.80;99.90;;;;;;10443079;28;20220;-81
2021/11/23 07:48:20;;;;;;;15.40;14.10;;;3.90;99.90;;;;;;10433372;28;20228;-82
2021/11/23 07:53:24;;;;;;;15.10;13.90;;;3.90;99.90;;;;;;10440251;28;20324;-81
2021/11/23 07:58:26;;;;;;;14.97;13.73;;;3.90;99.90;;;;;;10434926;28;20209;-81
2021/11/23 08:03:28;;;;;;;16.60;15.00;;;3.90;99.90;;;;;;10427635;28;20233;-81
2021/11/23 08:08:32;;;;;;;16.60;15.20;;;3.90;99.90;;;;;;10439958;28;20296;-81
2021/11/23 08:13:35;;;;;;;17.17;15.70;;;3.90;99.90;;;;;;10435424;28;20641;-81
2021/11/23 08:18:37;;;;;;;16.63;15.33;;;3.90;99.90;;;;;;10443717;28;20220;-81
2021/11/23 08:23:40;;;;;;;16.70;15.30;;;4.00;99.90;;;;;;10445293;28;20233;-81
2021/11/23 08:28:42;;;;;;;17.13;15.47;;;4.00;99.90;;;;;;10464053;28;20201;-81
2021/11/23 08:33:45;;;;;;;17.90;16.30;;;4.10;99.90;;;;;;10438102;28;20275;-81
2021/11/23 08:38:48;;;;;;;16.77;15.30;;;4.20;99.90;;;;;;10463260;28;20209;-81
2021/11/23 08:43:50;;;;;;;16.87;15.37;;;4.30;99.90;;;;;;10463694;28;20221;-81
2021/11/23 08:48:52;;;;;;;16.27;14.87;;;4.40;99.90;;;;;;10427580;28;20223;-81
2021/11/23 08:53:56;;;;;;;15.60;14.30;;;4.50;99.90;;;;;;10426453;28;20296;-81
2021/11/23 08:58:59;;;;;;;15.63;14.30;;;4.60;99.90;;;;;;10454600;28;20207;-81
2021/11/23 09:04:03;;;;;;;18.03;16.33;;;4.80;99.90;;;;;;10443392;28;20565;-81
2021/11/23 09:09:09;;;;;;;15.37;13.77;;;4.90;99.90;;;;;;10444260;28;20209;-81
2021/11/23 09:14:11;;;;;;;15.73;14.13;;;5.00;99.90;;;;;;10444839;28;20704;-81
2021/11/23 09:19:13;;;;;;;14.10;12.80;;;5.10;99.90;;;;;;10464075;28;20240;-82
2021/11/23 09:24:17;;;;;;;12.93;11.83;;;5.20;99.90;;;;;;10465583;28;20206;-82
2021/11/23 09:29:19;;;;;;;13.10;12.10;;;5.20;99.90;;;;;;10449033;28;20229;-81
2021/11/23 09:34:22;;;;;;;12.27;11.27;;;5.30;99.90;;;;;;10440337;28;20221;-81
2021/11/23 09:39:26;;;;;;;13.83;12.73;;;5.40;99.90;;;;;;10441658;28;20281;-80
2021/11/23 09:44:28;;;;;;;14.00;12.83;;;5.30;99.90;;;;;;10461497;28;20197;-79
2021/11/23 09:49:30;;;;;;;13.77;12.67;;;5.30;99.90;;;;;;10460309;28;20229;-80
2021/11/23 09:54:34;;;;;;;15.17;13.77;;;5.30;99.90;;;;;;10444732;28;20229;-80
2021/11/23 09:59:36;;;;;;;14.30;13.10;;;5.40;99.90;;;;;;10417342;28;20263;-80
2021/11/23 10:04:56;;;;;;;14.27;13.17;;;5.50;99.90;;;;;;10438484;28;20240;-80
2021/11/23 10:10:11;;;;;;;14.17;13.07;;;5.50;99.90;;;;;;10435543;28;20235;-80
2021/11/23 10:15:15;;;;;;;14.40;13.20;;;5.50;99.90;;;;;;10438618;28;20213;-80
2021/11/23 10:20:33;;;;;;;11.57;10.67;;;5.50;99.90;;;;;;10459041;28;20275;-80
2021/11/23 10:25:37;;;;;;;13.27;12.17;;;5.60;99.90;;;;;;10439826;28;20224;-80
2021/11/23 10:30:41;;;;;;;12.80;11.80;;;5.60;99.90;;;;;;10441359;28;20720;-80
2021/11/23 10:35:45;;;;;;;13.87;12.53;;;5.60;99.90;;;;;;10439456;28;20550;-80
2021/11/23 10:40:50;;;;;;;14.23;13.13;;;5.70;99.90;;;;;;10441819;28;20256;-80
2021/11/23 10:45:55;;;;;;;13.10;12.00;;;5.70;99.90;;;;;;10440877;28;20205;-80
2021/11/23 10:51:04;;;;;;;11.33;10.47;;;5.80;99.90;;;;;;10441631;28;20221;-79
2021/11/23 10:56:13;;;;;;;10.13;9.33;;;5.90;99.90;;;;;;10435026;28;20208;-80
2021/11/23 11:01:18;;;;;;;9.67;8.87;;;6.00;99.90;;;;;;10456658;28;20228;-81
2021/11/23 11:06:20;;;;;;;9.13;8.40;;;6.10;99.90;;;;;;10486106;28;20212;-81
2021/11/23 11:11:24;;;;;;;9.40;8.60;;;6.20;99.90;;;;;;10463996;28;20578;-80
2021/11/23 11:16:26;;;;;;;9.83;9.00;;;6.30;99.90;;;;;;10455469;28;20243;-80
2021/11/23 11:21:28;;;;;;;12.60;10.90;;;6.30;99.90;;;;;;10438365;28;20315;-80
2021/11/23 11:26:37;;;;;;;11.67;10.53;;;6.40;99.90;;;;;;10459154;28;20271;-80
2021/11/23 11:31:42;;;;;;;11.03;10.03;;;6.40;99.90;;;;;;10438713;28;20235;-80
2021/11/23 11:36:46;;;;;;;10.33;9.23;;;6.50;99.90;;;;;;10459873;28;20208;-80
2021/11/23 11:41:52;;;;;;;9.30;8.47;;;6.60;99.90;;;;;;10461330;28;20247;-81
2021/11/23 11:47:02;;;;;;;9.03;8.23;;;6.70;99.90;;;;;;10449544;28;20257;-80
2021/11/23 11:52:04;;;;;;;9.43;8.20;;;6.70;99.80;;;;;;10468064;28;20225;-80
2021/11/23 11:57:27;;;;;;;9.57;8.77;;;6.70;99.90;;;;;;10470127;28;20232;-80
2021/11/23 12:02:29;;;;;;;9.33;8.63;;;6.70;99.90;;;;;;10454556;28;20219;-80
2021/11/23 12:07:39;;;;;;;7.77;7.17;;;6.80;99.90;;;;;;10436182;28;20215;-80
2021/11/23 12:12:59;;;;;;;8.00;7.30;;;6.80;99.90;;;;;;10463691;28;20225;-80
2021/11/23 12:18:27;;;;;;;7.03;6.53;;;6.80;99.90;;;;;;10447131;28;20552;-81
2021/11/23 12:23:41;;;;;;;7.87;7.27;;;6.90;99.90;;;;;;10431367;28;20719;-80
2021/11/23 12:28:54;;;;;;;6.23;5.83;;;7.00;99.90;;;;;;10459825;28;20271;-80
2021/11/23 12:34:00;;;;;;;6.57;6.07;;;7.00;99.90;;;;;;10447624;28;20259;-81
2021/11/23 12:39:11;;;;;;;6.40;6.00;;;7.10;99.50;;;;;;10472267;28;20201;-80
2021/11/23 12:44:20;;;;;;;6.00;5.57;;;7.20;99.60;;;;;;10435294;28;20280;-79
2021/11/23 12:49:22;;;;;;;6.30;5.80;;;7.20;99.00;;;;;;10460585;28;20289;-80
2021/11/23 12:54:26;;;;;;;6.47;5.97;;;7.20;99.20;;;;;;10459198;28;20228;-80
2021/11/23 12:59:34;;;;;;;7.40;6.80;;;7.30;99.20;;;;;;10460450;28;20225;-80
2021/11/23 13:04:40;;;;;;;6.53;6.10;;;7.30;99.60;;;;;;10441213;28;20259;-80
2021/11/23 13:09:48;;;;;;;7.40;6.80;;;7.40;98.70;;;;;;10460476;28;20307;-80
2021/11/23 13:14:53;;;;;;;7.80;7.27;;;7.40;99.90;;;;;;10441659;28;20332;-80
2021/11/23 13:19:55;;;;;;;8.80;7.93;;;7.50;99.90;;;;;;10440911;28;20221;-80
2021/11/23 13:24:58;;;;;;;9.03;8.23;;;7.50;99.90;;;;;;10441250;28;20633;-80
2021/11/23 13:30:03;;;;;;;9.17;8.27;;;7.60;99.90;;;;;;10460564;28;20248;-80
2021/11/23 13:35:10;;;;;;;8.60;7.90;;;7.60;99.90;;;;;;10463606;28;20225;-80
2021/11/23 13:40:20;;;;;;;9.27;8.57;;;7.60;99.90;;;;;;10438980;28;20605;-80
2021/11/23 13:45:25;;;;;;;9.10;8.30;;;7.60;99.90;;;;;;10458734;28;20199;-80
2021/11/23 13:50:27;;;;;;;8.60;8.00;;;7.60;99.90;;;;;;10459989;28;20221;-80
2021/11/23 13:55:29;;;;;;;9.20;8.40;;;7.60;99.90;;;;;;10443701;28;20252;-80
2021/11/23 14:00:33;;;;;;;7.83;7.13;;;7.70;99.90;;;;;;10460280;28;20588;-81
2021/11/23 14:05:41;;;;;;;8.17;7.50;;;7.70;99.90;;;;;;10464122;28;20201;-80
2021/11/23 14:10:48;;;;;;;11.80;8.07;;;7.70;99.90;;;;;;10459943;28;20244;-80
2021/11/23 14:15:54;;;;;;;13.07;8.23;;;7.70;99.00;;;;;;10442485;28;20649;-80
2021/11/23 14:20:59;;;;;;;7.77;7.00;;;7.60;98.90;;;;;;10441674;28;20233;-80
2021/11/23 14:26:15;;;;;;;7.43;6.73;;;7.50;99.40;;;;;;10442543;28;20274;-80
2021/11/23 14:31:21;;;;;;;8.43;7.73;;;7.30;99.20;;;;;;10439319;28;20711;-80
2021/11/23 14:36:28;;;;;;;7.73;7.13;;;7.20;99.30;;;;;;10457171;28;20292;-81
2021/11/23 14:41:31;;;;;;;8.30;7.60;;;7.00;99.70;;;;;;10461104;28;20221;-80
2021/11/23 14:46:35;;;;;;;7.70;7.10;;;6.80;99.90;;;;;;10456663;28;20219;-80
2021/11/23 14:51:37;;;;;;;7.60;7.00;;;6.80;99.90;;;;;;10456603;28;20257;-80
2021/11/23 14:56:40;;;;;;;7.77;7.07;;;6.70;99.90;;;;;;10437761;28;20676;-79
2021/11/23 15:01:43;;;;;;;8.30;7.60;;;6.70;99.90;;;;;;10455167;28;20609;-80
2021/11/23 15:06:45;;;;;;;6.50;6.00;;;6.50;99.90;;;;;;10457254;28;20208;-80
2021/11/23 15:11:48;;;;;;;7.83;7.23;;;6.50;99.90;;;;;;10456975;28;20689;-80
2021/11/23 15:16:52;;;;;;;7.40;6.80;;;6.40;99.90;;;;;;10458395;28;20235;-80
2021/11/23 15:21:54;;;;;;;6.50;6.00;;;6.30;99.90;;;;;;10440651;28;20332;-80
2021/11/23 15:26:56;;;;;;;6.83;6.20;;;6.20;99.90;;;;;;10458646;28;20626;-80
2021/11/23 15:32:02;;;;;;;7.23;6.50;;;6.10;99.90;;;;;;10440575;28;20221;-80
2021/11/23 15:37:05;;;;;;;6.90;6.27;;;6.10;99.90;;;;;;10442598;28;20205;-81
2021/11/23 15:42:08;;;;;;;6.53;5.90;;;6.10;99.90;;;;;;10443605;28;20225;-81
2021/11/23 15:47:19;;;;;;;5.50;5.00;;;6.10;99.90;;;;;;10435494;28;20209;-80
2021/11/23 15:52:21;;;;;;;5.20;4.70;;;6.00;99.90;;;;;;10456512;28;20233;-81
2021/11/23 15:57:24;;;;;;;5.57;5.07;;;5.90;99.90;;;;;;10458435;28;20304;-80
2021/11/23 16:02:28;;;;;;;4.10;3.70;;;5.80;99.90;;;;;;10443895;28;20223;-80
2021/11/23 16:07:30;;;;;;;5.20;4.27;;;5.70;99.90;;;;;;10437099;28;20201;-80
2021/11/23 16:12:32;;;;;;;5.47;4.93;;;5.70;99.90;;;;;;10437577;28;20228;-80
2021/11/23 16:17:37;;;;;;;4.97;4.43;;;5.70;99.90;;;;;;10435778;28;20209;-80
2021/11/23 16:22:39;;;;;;;5.00;4.70;;;5.60;99.90;;;;;;10453964;28;20256;-80
2021/11/23 16:27:43;;;;;;;5.20;4.80;;;5.50;99.90;;;;;;10453504;28;20264;-80
2021/11/23 16:32:47;;;;;;;7.37;5.53;;;5.50;99.90;;;;;;10435476;28;20511;-79
2021/11/23 16:37:49;;;;;;;5.43;4.93;;;5.40;99.90;;;;;;10461385;28;20198;-80
2021/11/23 16:42:52;;;;;;;5.63;5.13;;;5.40;99.90;;;;;;10455674;28;20218;-79
2021/11/23 16:47:55;;;;;;;7.07;5.43;;;5.30;99.90;;;;;;10461105;28;20690;-80
2021/11/23 16:52:58;;;;;;;6.60;6.00;;;5.30;99.90;;;;;;10462140;28;20233;-80
2021/11/23 16:58:00;;;;;;;7.37;6.67;;;5.20;99.90;;;;;;10462562;28;20209;-80
2021/11/23 17:03:06;;;;;;;7.07;6.43;;;5.10;99.90;;;;;;10462544;28;20240;-80
2021/11/23 17:08:12;;;;;;;7.80;6.57;;;5.10;99.90;;;;;;10444420;28;20198;-81
2021/11/23 17:13:14;;;;;;;5.97;5.53;;;5.10;99.90;;;;;;10463760;28;20320;-81
2021/11/23 17:18:17;;;;;;;4.70;4.37;;;5.10;99.90;;;;;;10447307;28;20300;-80
2021/11/23 17:23:20;;;;;;;9.43;5.13;;;5.10;99.90;;;;;;10448618;28;20251;-80
2021/11/23 17:28:22;;;;;;;6.03;5.40;;;5.00;99.90;;;;;;10444884;28;20583;-80
2021/11/23 17:33:26;;;;;;;4.63;4.23;;;5.00;99.90;;;;;;10449211;28;20221;-80
2021/11/23 17:38:28;;;;;;;6.80;5.00;;;4.90;99.90;;;;;;10453470;28;20207;-80
2021/11/23 17:43:30;;;;;;;6.17;5.57;;;4.80;99.90;;;;;;10462268;28;20340;-80
2021/11/23 17:48:34;;;;;;;7.30;6.60;;;4.70;99.90;;;;;;10469744;28;20280;-81
2021/11/23 17:53:37;;;;;;;6.90;6.20;;;4.70;99.90;;;;;;10441357;28;20236;-80
2021/11/23 17:58:40;;;;;;;7.10;6.00;;;4.60;99.90;;;;;;10473866;28;20193;-80
2021/11/23 18:03:43;;;;;;;5.30;4.90;;;4.60;99.90;;;;;;10485722;28;20237;-80
2021/11/23 18:08:46;;;;;;;11.17;10.17;;;4.60;99.90;;;;;;10461456;28;20193;-81
2021/11/23 18:13:48;;;;;;;15.17;13.77;;;4.50;99.90;;;;;;10476050;28;20224;-81
2021/11/23 18:18:52;;;;;;;7.77;7.07;;;4.50;99.90;;;;;;10446948;28;20213;-80
2021/11/23 18:23:54;;;;;;;6.57;5.90;;;4.60;99.90;;;;;;10441169;28;20221;-81
2021/11/23 18:28:56;;;;;;;5.80;5.30;;;4.60;99.90;;;;;;10457268;28;20682;-80
2021/11/23 18:34:00;;;;;;;5.57;5.07;;;4.60;99.90;;;;;;10429291;28;20757;-80
2021/11/23 18:39:02;;;;;;;5.77;5.03;;;4.50;99.90;;;;;;10449385;28;20235;-81
2021/11/23 18:44:05;;;;;;;5.77;5.27;;;4.50;99.90;;;;;;10444812;28;20276;-80
2021/11/23 18:49:09;;;;;;;5.33;4.90;;;4.50;99.90;;;;;;10460484;28;20223;-81
2021/11/23 18:54:12;;;;;;;6.40;5.47;;;4.40;99.90;;;;;;10446976;28;20776;-81
2021/11/23 18:59:14;;;;;;;6.83;6.33;;;4.50;99.90;;;;;;10462069;28;20265;-81
2021/11/23 19:04:17;;;;;;;18.47;14.60;;;4.40;99.90;;;;;;10464376;28;20240;-81
2021/11/23 19:09:20;;;;;;;18.27;14.73;;;4.40;99.90;;;;;;10450836;28;20309;-81
2021/11/23 19:14:23;;;;;;;10.60;9.60;;;4.40;99.90;;;;;;10418875;28;20217;-81
2021/11/23 19:19:26;;;;;;;7.03;6.43;;;4.30;99.90;;;;;;10446810;28;20735;-81
2021/11/23 19:24:29;;;;;;;6.10;5.70;;;4.30;99.90;;;;;;10438117;28;20221;-81
2021/11/23 19:29:31;;;;;;;7.37;6.80;;;4.30;99.90;;;;;;10441600;28;20225;-81
2021/11/23 19:34:35;;;;;;;7.53;6.83;;;4.20;99.90;;;;;;10425709;28;20229;-81
2021/11/23 19:39:38;;;;;;;7.37;6.70;;;4.20;99.90;;;;;;10460532;28;20225;-82
2021/11/23 19:44:40;;;;;;;7.30;6.50;;;4.20;99.90;;;;;;10443265;28;20189;-81
2021/11/23 19:49:45;;;;;;;6.97;6.47;;;4.20;99.90;;;;;;10460499;28;20283;-81
2021/11/23 19:54:47;;;;;;;8.63;7.77;;;4.20;99.90;;;;;;10445957;28;20257;-81
2021/11/23 19:59:49;;;;;;;8.93;7.97;;;4.20;99.90;;;;;;10465642;28;20251;-81
2021/11/23 20:04:52;;;;;;;11.20;7.40;;;4.20;99.90;;;;;;10480111;28;20199;-81
2021/11/23 20:09:54;;;;;;;8.57;7.80;;;4.20;99.90;;;;;;10471561;28;20654;-81
2021/11/23 20:14:57;;;;;;;8.97;8.10;;;4.20;99.90;;;;;;10469025;28;20736;-81
2021/11/23 20:20:00;;;;;;;8.50;7.63;;;4.20;99.90;;;;;;10436488;28;20331;-81
2021/11/23 20:25:03;;;;;;;8.07;7.30;;;4.20;99.90;;;;;;10459621;28;20197;-81
2021/11/23 20:30:08;;;;;;;7.83;7.13;;;4.20;99.90;;;;;;10447922;28;20263;-81
2021/11/23 20:35:14;;;;;;;9.07;8.17;;;4.20;99.90;;;;;;10448223;28;20213;-80
2021/11/23 20:40:17;;;;;;;7.80;7.00;;;4.10;99.90;;;;;;10470109;28;20661;-80
2021/11/23 20:45:19;;;;;;;7.53;6.80;;;4.10;99.90;;;;;;10463516;28;20752;-80
2021/11/23 20:50:23;;;;;;;8.27;7.50;;;4.10;99.90;;;;;;10444002;28;20303;-80
2021/11/23 20:55:27;;;;;;;7.50;6.80;;;4.10;99.90;;;;;;10445030;28;20366;-80
2021/11/23 21:00:32;;;;;;;7.50;6.90;;;4.00;99.90;;;;;;10464358;28;20235;-80
2021/11/23 21:05:35;;;;;;;7.83;7.23;;;4.00;99.90;;;;;;10464010;28;20202;-80
2021/11/23 21:10:39;;;;;;;7.73;6.93;;;4.00;99.90;;;;;;10461937;28;20221;-80
2021/11/23 21:15:41;;;;;;;7.30;6.70;;;3.90;99.90;;;;;;10461673;28;20568;-80
2021/11/23 21:20:45;;;;;;;8.63;7.73;;;3.90;99.90;;;;;;10446779;28;20260;-80
2021/11/23 21:25:48;;;;;;;9.57;8.67;;;3.90;99.90;;;;;;10463197;28;20197;-80
2021/11/23 21:30:50;;;;;;;7.40;6.87;;;3.80;99.90;;;;;;10462245;28;20236;-80
2021/11/23 21:35:54;;;;;;;7.03;6.43;;;3.90;99.90;;;;;;10419060;28;20693;-80
2021/11/23 21:40:56;;;;;;;7.20;6.17;;;3.90;99.90;;;;;;10444889;28;20270;-80
2021/11/23 21:46:10;;;;;;;5.63;5.20;;;3.90;99.90;;;;;;10460929;28;20272;-79
2021/11/23 21:51:15;;;;;;;7.83;6.03;;;3.90;99.90;;;;;;10462444;28;20651;-82
2021/11/23 21:56:17;;;;;;;6.97;5.90;;;3.90;99.90;;;;;;10460166;28;20247;-82
2021/11/23 22:01:20;;;;;;;6.43;5.83;;;3.90;99.70;;;;;;10450702;28;20220;-82
2021/11/23 22:06:23;;;;;;;5.70;5.27;;;3.80;99.90;;;;;;10449638;28;20525;-82
2021/11/23 22:11:26;;;;;;;6.77;6.17;;;3.70;99.90;;;;;;10449032;28;20284;-82
2021/11/23 22:16:28;;;;;;;7.30;6.60;;;3.70;99.90;;;;;;10467727;28;20232;-82
2021/11/23 22:21:32;;;;;;;7.33;6.63;;;3.60;99.90;;;;;;10469264;28;20267;-82
2021/11/23 22:26:35;;;;;;;7.13;6.47;;;3.60;99.90;;;;;;10448970;28;20193;-81
2021/11/23 22:31:37;;;;;;;6.63;6.03;;;3.60;99.90;;;;;;10461800;28;20221;-82
2021/11/23 22:36:41;;;;;;;7.10;6.40;;;3.60;99.90;;;;;;10434252;28;20236;-82
2021/11/23 22:41:44;;;;;;;8.23;7.43;;;3.50;99.90;;;;;;10434550;28;20236;-82
2021/11/23 22:46:46;;;;;;;8.27;6.97;;;3.50;99.90;;;;;;10444639;28;20205;-82
2021/11/23 22:51:51;;;;;;;7.10;6.50;;;3.50;99.90;;;;;;10442720;28;20597;-81
2021/11/23 22:56:53;;;;;;;5.97;5.37;;;3.50;99.90;;;;;;10456928;28;20558;-82
2021/11/23 23:01:55;;;;;;;7.73;6.93;;;3.50;99.90;;;;;;10454383;28;20708;-81
2021/11/23 23:06:59;;;;;;;6.23;5.73;;;3.50;99.90;;;;;;10464661;28;20205;-82
2021/11/23 23:12:11;;;;;;;8.37;6.03;;;3.50;99.90;;;;;;10443139;28;20672;-82
2021/11/23 23:17:15;;;;;;;8.40;7.30;;;3.40;99.90;;;;;;10447263;28;20259;-82
2021/11/23 23:22:19;;;;;;;6.80;6.10;;;3.40;99.90;;;;;;10469298;28;20319;-81
2021/11/23 23:27:23;;;;;;;7.63;6.93;;;3.30;99.90;;;;;;10422175;28;20304;-81
2021/11/23 23:32:25;;;;;;;8.07;7.30;;;3.30;99.90;;;;;;10432374;28;20256;-82
2021/11/23 23:37:28;;;;;;;7.47;6.70;;;3.30;99.90;;;;;;10447545;28;20256;-82
2021/11/23 23:42:30;;;;;;;7.10;6.50;;;3.30;99.90;;;;;;10471410;28;20220;-82
2021/11/23 23:47:34;;;;;;;6.97;6.47;;;3.30;99.90;;;;;;10454588;28;20645;-82
2021/11/23 23:52:37;;;;;;;6.83;6.30;;;3.30;99.90;;;;;;10474154;28;20572;-82
2021/11/23 23:57:39;;;;;;;7.40;6.03;;;3.30;99.90;;;;;;10490365;28;20197;-82
